Time;durP1;ratioP1;P1;durP2;ratioP2;P2;SDS_P1;SDS_P2;PMS_P1;PMS_P2;Temp;Humidity;BMP_temperature;BMP_pressure;BME280_temperature;BME280_humidity;BME280_pressure;Samples;Min_cycle;Max_cycle;Signal;HPM_P1;HPM_P2
2023/10/23 00:00:50;;;;;;;1.40;0.70;;;6.50;99.90;;;;;;5112649;27;20434;-79
2023/10/23 00:03:17;;;;;;;1.47;0.73;;;6.50;99.90;;;;;;5104125;27;21037;-79
2023/10/23 00:05:44;;;;;;;0.80;0.80;;;6.40;99.90;;;;;;5120199;27;20507;-79
2023/10/23 00:08:11;;;;;;;2.80;1.67;;;6.40;99.90;;;;;;5120071;27;20574;-79
2023/10/23 00:10:38;;;;;;;1.40;1.30;;;6.40;99.90;;;;;;5104470;27;20499;-79
2023/10/23 00:13:07;;;;;;;2.43;1.37;;;6.40;99.90;;;;;;5108972;27;20438;-79
2023/10/23 00:15:34;;;;;;;2.83;1.57;;;6.40;99.90;;;;;;5117489;27;20516;-79
2023/10/23 00:18:01;;;;;;;3.03;1.40;;;6.40;99.90;;;;;;5117775;27;20502;-79
2023/10/23 00:20:27;;;;;;;1.43;1.03;;;6.40;99.90;;;;;;5106197;28;20501;-79
2023/10/23 00:22:54;;;;;;;5.00;2.10;;;6.30;99.90;;;;;;5111330;27;20616;-79
2023/10/23 00:25:21;;;;;;;1.63;1.33;;;6.30;99.90;;;;;;5102168;27;20461;-79
2023/10/23 00:27:48;;;;;;;2.27;1.33;;;6.30;99.90;;;;;;5117617;27;20628;-79
2023/10/23 00:30:17;;;;;;;1.87;0.97;;;6.30;99.90;;;;;;5109185;27;20990;-79
2023/10/23 00:32:44;;;;;;;2.10;1.00;;;6.30;99.90;;;;;;5104580;27;21056;-79
2023/10/23 00:35:11;;;;;;;1.27;0.90;;;6.40;99.90;;;;;;5116063;27;20570;-79
2023/10/23 00:37:38;;;;;;;0.93;0.93;;;6.40;99.90;;;;;;5104939;27;20531;-79
2023/10/23 00:40:06;;;;;;;1.40;1.17;;;6.40;99.90;;;;;;5107009;27;20462;-79
2023/10/23 00:42:33;;;;;;;1.93;0.90;;;6.40;99.90;;;;;;5108161;27;20450;-79
2023/10/23 00:45:00;;;;;;;4.03;1.40;;;6.40;99.90;;;;;;5119060;27;20534;-79
2023/10/23 00:47:28;;;;;;;1.53;1.00;;;6.40;99.90;;;;;;5106206;27;20522;-79
2023/10/23 00:49:57;;;;;;;1.33;1.23;;;6.40;99.90;;;;;;5105588;27;20465;-79
2023/10/23 00:52:24;;;;;;;1.20;1.10;;;6.30;99.90;;;;;;5111966;27;20473;-79
2023/10/23 00:54:53;;;;;;;1.23;0.90;;;6.40;99.90;;;;;;5111210;27;20832;-79
2023/10/23 00:57:20;;;;;;;2.90;0.87;;;6.40;99.90;;;;;;5117506;27;20457;-80
2023/10/23 00:59:47;;;;;;;1.37;1.27;;;6.30;99.90;;;;;;5107920;27;20461;-80
2023/10/23 01:02:15;;;;;;;2.20;1.10;;;6.30;99.90;;;;;;5108250;27;20469;-79
2023/10/23 01:04:44;;;;;;;1.40;1.00;;;6.30;99.90;;;;;;5115287;27;20434;-80
2023/10/23 01:07:11;;;;;;;2.70;1.13;;;6.30;99.90;;;;;;5119865;27;20545;-80
2023/10/23 01:09:38;;;;;;;1.10;1.00;;;6.30;99.90;;;;;;5105681;27;20441;-80
2023/10/23 01:12:06;;;;;;;0.70;0.70;;;6.20;99.90;;;;;;5113288;27;20809;-80
2023/10/23 01:14:33;;;;;;;0.73;0.70;;;6.20;99.90;;;;;;5116813;27;20584;-80
2023/10/23 01:17:00;;;;;;;2.00;1.37;;;6.20;99.90;;;;;;5115596;27;20988;-79
2023/10/23 01:19:27;;;;;;;1.10;1.00;;;6.20;99.90;;;;;;5116236;27;20442;-80
2023/10/23 01:21:55;;;;;;;1.20;1.10;;;6.20;99.90;;;;;;5109889;27;20472;-79
2023/10/23 01:24:24;;;;;;;1.77;1.10;;;6.30;99.90;;;;;;5108206;27;20500;-79
2023/10/23 01:26:53;;;;;;;1.83;1.07;;;6.30;99.90;;;;;;5108136;27;20907;-80
2023/10/23 01:29:19;;;;;;;1.03;0.70;;;6.40;99.90;;;;;;5117196;27;20464;-79
2023/10/23 01:31:46;;;;;;;3.50;1.13;;;6.60;99.90;;;;;;5110313;27;20525;-80
2023/10/23 01:34:13;;;;;;;1.30;1.20;;;6.60;99.90;;;;;;5105992;27;20840;-79
2023/10/23 01:36:40;;;;;;;1.40;1.30;;;6.60;99.90;;;;;;5112349;27;20759;-80
2023/10/23 01:39:07;;;;;;;1.87;1.77;;;6.70;99.90;;;;;;5133067;27;20495;-80
2023/10/23 01:41:34;;;;;;;2.27;1.90;;;6.70;99.90;;;;;;5106112;27;20458;-79
2023/10/23 01:44:03;;;;;;;5.40;3.17;;;6.80;99.90;;;;;;5114870;27;20558;-80
2023/10/23 01:46:30;;;;;;;3.67;3.30;;;6.80;99.90;;;;;;5109333;27;20527;-80
2023/10/23 01:48:56;;;;;;;6.57;4.00;;;6.90;99.90;;;;;;5112726;27;20686;-80
2023/10/23 01:51:23;;;;;;;3.87;3.47;;;6.90;99.90;;;;;;5114802;27;20466;-79
2023/10/23 01:53:50;;;;;;;3.83;3.53;;;7.00;99.90;;;;;;5108632;27;20519;-79
2023/10/23 01:56:17;;;;;;;3.77;3.47;;;7.00;99.90;;;;;;5112650;27;20863;-79
2023/10/23 01:58:44;;;;;;;4.23;3.90;;;7.00;99.90;;;;;;5123371;27;20461;-79
2023/10/23 02:01:21;;;;;;;4.60;4.20;;;7.00;99.90;;;;;;5118592;27;20441;-79
2023/10/23 02:03:48;;;;;;;4.50;4.10;;;7.10;99.90;;;;;;5117823;27;20495;-79
2023/10/23 02:06:15;;;;;;;4.07;3.80;;;7.00;99.90;;;;;;5110268;27;20486;-79
2023/10/23 02:08:42;;;;;;;4.07;3.67;;;6.80;99.90;;;;;;5117107;27;20518;-79
2023/10/23 02:11:09;;;;;;;4.43;3.87;;;6.80;99.90;;;;;;5108176;27;20484;-80
2023/10/23 02:13:37;;;;;;;4.00;3.80;;;6.70;99.90;;;;;;5114450;27;20522;-80
2023/10/23 02:16:04;;;;;;;15.40;4.03;;;6.60;99.90;;;;;;5117330;27;21260;-79
2023/10/23 02:18:32;;;;;;;8.50;3.03;;;6.40;99.90;;;;;;5122855;27;20438;-80
2023/10/23 02:20:59;;;;;;;6.03;2.70;;;6.40;99.90;;;;;;5122729;27;20511;-79
2023/10/23 02:23:26;;;;;;;2.50;2.30;;;6.20;99.90;;;;;;5117389;27;20553;-80
2023/10/23 02:25:53;;;;;;;5.47;2.70;;;6.00;99.90;;;;;;5107046;27;21138;-80
2023/10/23 02:28:20;;;;;;;3.17;2.93;;;5.90;99.90;;;;;;5114369;27;20440;-80
2023/10/23 02:30:47;;;;;;;2.77;2.57;;;5.80;99.90;;;;;;5116174;27;20462;-81
2023/10/23 02:33:14;;;;;;;1.80;1.70;;;5.80;99.90;;;;;;5122226;27;20506;-81
2023/10/23 02:35:43;;;;;;;2.03;1.93;;;5.80;99.90;;;;;;5106677;27;20550;-81
2023/10/23 02:38:10;;;;;;;2.00;1.90;;;5.90;99.90;;;;;;5117817;27;20962;-78
2023/10/23 02:40:37;;;;;;;1.30;1.20;;;5.70;99.90;;;;;;5128099;27;20868;-79
2023/10/23 02:43:04;;;;;;;2.43;2.23;;;5.60;99.90;;;;;;5110026;27;20564;-79
2023/10/23 02:45:33;;;;;;;1.97;1.80;;;5.40;99.90;;;;;;5118856;27;20443;-81
2023/10/23 02:48:00;;;;;;;4.90;2.67;;;5.40;99.90;;;;;;5110037;27;20439;-80
2023/10/23 02:50:27;;;;;;;4.30;1.57;;;5.50;99.90;;;;;;5107243;27;20462;-80
2023/10/23 02:52:56;;;;;;;21.93;3.47;;;5.60;99.90;;;;;;5111374;27;20468;-80
2023/10/23 02:55:25;;;;;;;1.67;1.57;;;5.50;99.90;;;;;;5108968;27;20584;-80
2023/10/23 02:57:52;;;;;;;2.00;1.30;;;5.40;99.90;;;;;;5109334;27;20908;-80
2023/10/23 03:00:21;;;;;;;1.73;1.63;;;5.20;99.90;;;;;;5108728;27;20536;-80
2023/10/23 03:02:49;;;;;;;1.47;1.37;;;5.10;99.90;;;;;;5123290;27;20489;-80
2023/10/23 03:05:16;;;;;;;2.33;2.23;;;5.10;99.90;;;;;;5110094;27;20437;-80
2023/10/23 03:07:44;;;;;;;1.77;1.30;;;5.10;99.90;;;;;;5110946;27;21225;-80
2023/10/23 03:10:12;;;;;;;1.57;1.47;;;5.00;99.90;;;;;;5114548;27;20545;-80
2023/10/23 03:12:39;;;;;;;1.80;1.70;;;5.00;99.90;;;;;;5117100;27;20624;-80
2023/10/23 03:15:08;;;;;;;3.97;2.03;;;4.90;99.90;;;;;;5105993;27;20487;-80
2023/10/23 03:17:36;;;;;;;2.13;1.97;;;4.90;99.90;;;;;;5110204;27;20510;-80
2023/10/23 03:20:03;;;;;;;1.70;1.60;;;5.00;99.90;;;;;;5110852;27;20450;-80
2023/10/23 03:22:30;;;;;;;5.43;3.00;;;5.00;99.90;;;;;;5123641;27;20798;-80
2023/10/23 03:24:57;;;;;;;2.50;2.07;;;5.00;99.90;;;;;;5124249;27;20500;-80
2023/10/23 03:27:26;;;;;;;2.03;1.90;;;5.00;99.90;;;;;;5110519;27;20498;-80
2023/10/23 03:29:53;;;;;;;1.63;1.53;;;5.00;99.90;;;;;;5106373;27;20510;-80
2023/10/23 03:32:20;;;;;;;2.20;1.90;;;5.10;99.90;;;;;;5114459;27;20805;-80
2023/10/23 03:34:47;;;;;;;5.50;2.50;;;5.10;99.90;;;;;;5107763;27;20487;-80
2023/10/23 03:37:14;;;;;;;3.87;2.20;;;5.10;99.90;;;;;;5103418;27;20542;-80
2023/10/23 03:39:41;;;;;;;3.30;2.93;;;5.10;99.90;;;;;;5117145;27;20469;-80
2023/10/23 03:42:08;;;;;;;42.43;9.80;;;5.20;99.90;;;;;;5128314;27;20452;-80
2023/10/23 03:44:37;;;;;;;6.97;4.10;;;5.30;99.90;;;;;;5101447;27;21000;-80
2023/10/23 03:47:04;;;;;;;3.17;2.97;;;5.40;99.90;;;;;;5103546;27;20439;-80
2023/10/23 03:49:31;;;;;;;5.50;3.37;;;5.40;99.90;;;;;;5118777;27;20523;-80
2023/10/23 03:51:58;;;;;;;31.60;9.37;;;5.40;99.90;;;;;;5108188;27;20511;-80
2023/10/23 03:54:25;;;;;;;79.03;18.47;;;5.30;99.90;;;;;;5106304;27;20448;-80
2023/10/23 03:56:52;;;;;;;24.47;5.10;;;5.50;99.90;;;;;;5118081;27;20962;-80
2023/10/23 03:59:19;;;;;;;1.53;1.43;;;5.60;99.90;;;;;;5120965;27;20556;-80
2023/10/23 04:01:47;;;;;;;1.67;1.30;;;5.60;99.90;;;;;;5108768;27;20514;-80
2023/10/23 04:04:15;;;;;;;1.50;1.20;;;5.50;99.90;;;;;;5119526;27;20457;-80
2023/10/23 04:06:41;;;;;;;0.93;0.87;;;5.50;99.90;;;;;;5107018;27;20512;-80
2023/10/23 04:09:08;;;;;;;1.80;0.80;;;5.50;99.90;;;;;;5112511;27;20461;-80
2023/10/23 04:11:35;;;;;;;2.30;1.40;;;5.50;99.90;;;;;;5106158;27;20541;-80
2023/10/23 04:14:04;;;;;;;1.00;0.90;;;5.40;99.90;;;;;;5108075;27;20933;-80
2023/10/23 04:16:31;;;;;;;1.63;0.90;;;5.30;99.90;;;;;;5117353;27;20489;-80
2023/10/23 04:18:59;;;;;;;2.20;1.23;;;5.10;99.90;;;;;;5116743;27;21666;-80
2023/10/23 04:21:26;;;;;;;5.67;1.60;;;5.10;99.90;;;;;;5102484;27;20545;-80
2023/10/23 04:23:53;;;;;;;1.00;0.77;;;5.10;99.90;;;;;;5111989;27;20499;-80
2023/10/23 04:26:20;;;;;;;0.70;0.60;;;5.10;99.90;;;;;;5109880;27;20468;-80
2023/10/23 04:28:47;;;;;;;1.00;0.67;;;5.10;99.90;;;;;;5112499;27;21004;-80
2023/10/23 04:31:14;;;;;;;0.50;0.50;;;5.20;99.90;;;;;;5114170;27;20475;-80
2023/10/23 04:33:41;;;;;;;1.00;0.60;;;5.10;99.90;;;;;;5119102;27;20441;-80
2023/10/23 04:36:09;;;;;;;1.07;0.90;;;5.00;99.90;;;;;;5111557;27;20552;-81
2023/10/23 04:38:36;;;;;;;1.93;1.00;;;5.00;99.90;;;;;;5113681;27;20574;-80
2023/10/23 04:41:03;;;;;;;1.97;0.90;;;5.00;99.90;;;;;;5112277;27;20475;-80
2023/10/23 04:43:30;;;;;;;1.10;0.70;;;5.00;99.90;;;;;;5112701;27;20473;-80
2023/10/23 04:45:57;;;;;;;4.20;0.60;;;5.10;99.90;;;;;;5111674;27;20461;-81
2023/10/23 04:48:24;;;;;;;1.73;0.80;;;5.20;99.90;;;;;;5120054;27;20530;-81
2023/10/23 04:50:51;;;;;;;0.90;0.90;;;5.30;99.90;;;;;;5120939;27;20453;-81
2023/10/23 04:53:20;;;;;;;0.70;0.70;;;5.30;99.90;;;;;;5120148;27;20462;-81
2023/10/23 04:55:47;;;;;;;1.80;1.00;;;5.20;99.90;;;;;;5119106;27;20573;-81
2023/10/23 04:58:14;;;;;;;1.10;0.90;;;5.10;99.90;;;;;;5114429;27;20472;-81
2023/10/23 05:00:41;;;;;;;2.63;0.83;;;5.00;99.90;;;;;;5111158;27;20523;-81
2023/10/23 05:03:08;;;;;;;1.23;0.90;;;5.00;99.90;;;;;;5116968;27;20542;-81
2023/10/23 05:05:35;;;;;;;0.80;0.80;;;5.00;99.90;;;;;;5109473;27;20461;-81
2023/10/23 05:08:03;;;;;;;2.00;0.80;;;5.10;99.90;;;;;;5112712;27;20506;-81
2023/10/23 05:10:32;;;;;;;1.23;0.90;;;5.20;99.90;;;;;;5113662;27;20473;-81
2023/10/23 05:12:59;;;;;;;5.60;1.73;;;5.20;99.90;;;;;;5114298;27;20448;-81
2023/10/23 05:15:26;;;;;;;2.43;0.80;;;5.10;99.90;;;;;;5108532;27;20488;-81
2023/10/23 05:17:52;;;;;;;1.27;0.93;;;5.00;99.90;;;;;;5117392;27;20509;-81
2023/10/23 05:20:19;;;;;;;2.70;0.80;;;5.00;99.90;;;;;;5110998;27;20798;-81
2023/10/23 05:22:47;;;;;;;1.13;0.93;;;4.90;99.90;;;;;;5125570;27;20444;-81
2023/10/23 05:25:14;;;;;;;0.80;0.80;;;5.00;99.90;;;;;;5108125;27;20461;-82
2023/10/23 05:27:42;;;;;;;2.60;1.83;;;5.00;99.90;;;;;;5117702;27;20840;-81
2023/10/23 05:30:09;;;;;;;0.77;0.77;;;5.10;99.90;;;;;;5112466;27;20551;-81
2023/10/23 05:32:37;;;;;;;1.90;0.90;;;5.00;99.90;;;;;;5116898;27;20540;-81
2023/10/23 05:35:05;;;;;;;2.43;1.23;;;5.10;99.90;;;;;;5111155;27;20458;-81
2023/10/23 05:37:34;;;;;;;1.67;0.70;;;5.10;99.90;;;;;;5106506;27;20479;-81
2023/10/23 05:40:01;;;;;;;4.50;0.70;;;5.10;99.90;;;;;;5117716;27;20456;-80
2023/10/23 05:42:28;;;;;;;0.80;0.77;;;5.20;99.90;;;;;;5118155;27;20796;-79
2023/10/23 05:44:56;;;;;;;1.03;0.73;;;5.10;99.90;;;;;;5109327;27;20498;-80
2023/10/23 05:47:24;;;;;;;3.57;1.00;;;5.10;99.90;;;;;;5118869;27;20529;-79
2023/10/23 05:49:51;;;;;;;2.00;0.80;;;5.10;99.90;;;;;;5125045;27;20454;-79
2023/10/23 05:52:18;;;;;;;1.20;0.77;;;5.10;99.90;;;;;;5117120;27;20464;-79
2023/10/23 05:54:45;;;;;;;1.73;0.77;;;5.10;99.90;;;;;;5118104;27;20452;-80
2023/10/23 05:57:12;;;;;;;1.43;0.60;;;5.10;99.90;;;;;;5117595;27;20551;-79
2023/10/23 05:59:39;;;;;;;0.70;0.70;;;5.10;99.90;;;;;;5109116;27;20501;-79
2023/10/23 06:02:08;;;;;;;7.60;2.40;;;5.10;99.90;;;;;;5113216;27;20509;-80
2023/10/23 06:04:35;;;;;;;1.57;0.80;;;5.10;99.90;;;;;;5109979;27;20497;-78
2023/10/23 06:07:02;;;;;;;8.53;0.90;;;5.20;99.90;;;;;;5109069;27;20522;-78
2023/10/23 06:09:29;;;;;;;1.30;1.00;;;5.20;99.90;;;;;;5115051;27;20828;-79
2023/10/23 06:11:56;;;;;;;1.80;1.60;;;5.20;99.90;;;;;;5107129;27;20560;-78
2023/10/23 06:14:23;;;;;;;0.97;0.60;;;5.30;99.90;;;;;;5122923;27;20461;-78
2023/10/23 06:16:50;;;;;;;1.70;1.10;;;5.30;99.90;;;;;;5113698;27;21268;-78
2023/10/23 06:19:18;;;;;;;0.87;0.80;;;5.40;99.90;;;;;;5118491;27;20531;-78
2023/10/23 06:21:45;;;;;;;0.93;0.80;;;5.40;99.90;;;;;;5117273;27;20538;-78
2023/10/23 06:24:12;;;;;;;1.10;0.90;;;5.50;99.90;;;;;;5110060;27;20502;-79
2023/10/23 06:26:39;;;;;;;1.03;0.80;;;5.40;99.90;;;;;;5108340;27;20527;-79
2023/10/23 06:29:06;;;;;;;1.33;0.90;;;5.50;99.90;;;;;;5108121;27;20453;-79
2023/10/23 06:31:33;;;;;;;0.60;0.60;;;5.40;99.90;;;;;;5106519;27;20449;-79
2023/10/23 06:34:00;;;;;;;0.87;0.87;;;5.50;99.90;;;;;;5123879;27;20929;-79
2023/10/23 06:36:31;;;;;;;0.90;0.70;;;5.50;99.90;;;;;;5110580;27;20589;-79
2023/10/23 06:38:58;;;;;;;2.77;0.93;;;5.50;99.90;;;;;;5110732;27;20443;-79
2023/10/23 06:41:25;;;;;;;0.93;0.80;;;5.60;99.90;;;;;;5106476;27;20477;-79
2023/10/23 06:43:52;;;;;;;1.67;0.93;;;5.70;99.90;;;;;;5105313;27;20443;-78
2023/10/23 06:46:19;;;;;;;2.23;0.73;;;5.90;99.90;;;;;;5120903;27;20484;-79
2023/10/23 06:48:46;;;;;;;6.10;1.00;;;6.00;99.90;;;;;;5118763;27;20803;-78
2023/10/23 06:51:13;;;;;;;1.10;0.87;;;6.20;99.90;;;;;;5115912;27;20508;-87
2023/10/23 06:53:42;;;;;;;1.00;0.80;;;6.30;99.90;;;;;;5104370;27;20562;-82
2023/10/23 06:56:09;;;;;;;1.27;1.10;;;6.70;99.90;;;;;;5111968;27;20492;-82
2023/10/23 06:58:36;;;;;;;3.53;2.73;;;6.90;99.90;;;;;;5124416;27;20531;-82
2023/10/23 07:01:08;;;;;;;6.63;2.23;;;7.00;99.90;;;;;;5109003;27;20492;-82
2023/10/23 07:03:35;;;;;;;2.53;2.10;;;7.00;99.90;;;;;;5104714;27;20722;-82
2023/10/23 07:06:05;;;;;;;7.40;2.83;;;6.90;99.90;;;;;;5114639;27;20491;-82
2023/10/23 07:08:32;;;;;;;6.13;3.97;;;6.70;99.90;;;;;;5122956;27;20765;-82
2023/10/23 07:11:00;;;;;;;9.70;4.00;;;6.70;99.90;;;;;;5121619;27;20584;-80
2023/10/23 07:13:28;;;;;;;11.10;3.40;;;6.70;99.90;;;;;;5112184;27;20447;-81
2023/10/23 07:15:54;;;;;;;13.43;4.10;;;6.70;99.90;;;;;;5115124;27;20472;-80
2023/10/23 07:18:23;;;;;;;3.20;2.43;;;6.70;99.90;;;;;;5114324;27;20443;-80
2023/10/23 07:20:55;;;;;;;5.13;2.97;;;6.60;99.90;;;;;;5115797;27;20444;-80
2023/10/23 07:23:23;;;;;;;4.10;3.70;;;6.70;99.90;;;;;;5108094;27;20557;-81
2023/10/23 07:25:59;;;;;;;6.37;3.97;;;6.70;99.90;;;;;;5104804;27;20529;-81
2023/10/23 07:28:27;;;;;;;7.10;3.33;;;6.70;99.90;;;;;;5107473;27;20482;-80
2023/10/23 07:30:54;;;;;;;3.83;2.83;;;6.80;99.90;;;;;;5118023;27;20454;-81
2023/10/23 07:33:21;;;;;;;2.57;2.37;;;6.80;99.90;;;;;;5112588;27;20506;-81
2023/10/23 07:35:48;;;;;;;4.57;3.83;;;6.90;99.90;;;;;;5105325;27;21015;-81
2023/10/23 07:38:15;;;;;;;8.60;3.80;;;7.10;99.90;;;;;;5107118;27;20516;-81
2023/10/23 07:40:43;;;;;;;4.53;4.13;;;7.30;99.90;;;;;;5108851;27;20526;-81
2023/10/23 07:43:11;;;;;;;3.13;2.87;;;7.40;99.90;;;;;;5126745;27;21126;-80
2023/10/23 07:45:41;;;;;;;5.40;4.10;;;7.50;99.90;;;;;;5108413;27;20999;-81
2023/10/23 07:48:08;;;;;;;3.57;3.27;;;7.70;99.90;;;;;;5109900;27;20464;-81
2023/10/23 07:50:36;;;;;;;3.40;3.10;;;7.90;99.90;;;;;;5117112;27;20785;-80
2023/10/23 07:53:03;;;;;;;2.20;2.10;;;8.00;99.90;;;;;;5107151;27;20458;-81
2023/10/23 07:55:30;;;;;;;3.97;3.13;;;8.10;99.90;;;;;;5110699;27;21051;-82
2023/10/23 07:57:57;;;;;;;3.20;2.73;;;8.20;99.90;;;;;;5107345;27;20802;-81
2023/10/23 08:00:27;;;;;;;2.50;2.30;;;8.20;99.90;;;;;;5113245;27;20802;-82
2023/10/23 08:02:56;;;;;;;3.10;2.80;;;8.00;99.90;;;;;;5105945;27;20448;-81
2023/10/23 08:05:23;;;;;;;3.10;2.83;;;8.10;99.90;;;;;;5112088;27;20493;-81
2023/10/23 08:07:50;;;;;;;2.93;2.73;;;8.30;99.90;;;;;;5104212;27;20454;-81
2023/10/23 08:10:18;;;;;;;3.13;2.83;;;8.50;99.90;;;;;;5134570;27;20457;-81
2023/10/23 08:12:46;;;;;;;2.70;2.50;;;8.70;99.90;;;;;;5124200;27;20464;-81
2023/10/23 08:15:14;;;;;;;4.83;4.33;;;8.80;99.90;;;;;;5115445;27;20469;-81
2023/10/23 08:17:41;;;;;;;2.50;2.30;;;9.00;99.90;;;;;;5109908;27;20481;-81
2023/10/23 08:20:10;;;;;;;2.60;2.40;;;9.10;99.90;;;;;;5116923;27;20532;-81
2023/10/23 08:22:37;;;;;;;3.37;3.07;;;9.00;99.90;;;;;;5124686;27;20491;-81
2023/10/23 08:25:04;;;;;;;1.33;1.23;;;9.10;99.90;;;;;;5122359;27;20442;-81
2023/10/23 08:27:31;;;;;;;3.93;3.00;;;9.30;99.90;;;;;;5115423;27;20480;-80
2023/10/23 08:29:58;;;;;;;1.67;1.57;;;9.50;99.90;;;;;;5128922;27;20475;-81
2023/10/23 08:32:25;;;;;;;2.93;2.43;;;9.70;99.90;;;;;;5116003;27;20461;-80
2023/10/23 08:34:54;;;;;;;2.30;1.73;;;10.00;99.90;;;;;;5114596;27;20532;-81
2023/10/23 08:37:22;;;;;;;1.57;1.30;;;10.10;99.90;;;;;;5118455;27;20586;-81
2023/10/23 08:39:49;;;;;;;2.50;2.30;;;10.10;99.90;;;;;;5112358;27;20530;-81
2023/10/23 08:42:16;;;;;;;1.70;1.60;;;10.20;99.90;;;;;;5120410;27;20473;-79
2023/10/23 08:44:44;;;;;;;1.33;1.10;;;10.30;99.90;;;;;;5128150;27;20521;-79
2023/10/23 08:47:11;;;;;;;1.97;1.73;;;10.30;99.90;;;;;;5119103;27;20455;-79
2023/10/23 08:49:38;;;;;;;0.80;0.80;;;10.30;99.90;;;;;;5129981;27;20429;-79
2023/10/23 08:52:11;;;;;;;1.40;1.30;;;10.30;99.90;;;;;;5117433;27;20512;-79
2023/10/23 08:54:41;;;;;;;2.50;1.47;;;10.30;99.90;;;;;;5117955;27;20816;-79
2023/10/23 08:57:08;;;;;;;2.17;1.40;;;10.40;99.90;;;;;;5116572;27;20485;-79
2023/10/23 08:59:35;;;;;;;2.83;1.43;;;10.50;99.90;;;;;;5116215;27;20480;-80
2023/10/23 09:02:03;;;;;;;2.13;0.93;;;10.40;99.90;;;;;;5114290;27;20913;-80
2023/10/23 09:04:30;;;;;;;1.40;1.30;;;10.40;99.90;;;;;;5121859;27;20474;-79
2023/10/23 09:06:59;;;;;;;1.50;1.40;;;10.30;99.90;;;;;;5122934;27;20464;-80
2023/10/23 09:09:26;;;;;;;1.90;1.37;;;10.40;99.90;;;;;;5126041;27;21152;-79
2023/10/23 09:11:54;;;;;;;2.43;1.30;;;10.50;99.90;;;;;;5112422;27;20469;-80
2023/10/23 09:14:26;;;;;;;1.30;1.17;;;10.50;99.90;;;;;;5111098;27;20526;-80
2023/10/23 09:16:54;;;;;;;1.60;1.13;;;10.50;99.90;;;;;;5113453;27;20568;-79
2023/10/23 09:19:26;;;;;;;4.50;1.03;;;10.60;99.90;;;;;;5124708;27;20916;-80
2023/10/23 09:21:55;;;;;;;2.80;1.40;;;10.60;99.90;;;;;;5109990;27;21418;-80
2023/10/23 09:24:23;;;;;;;1.60;1.23;;;10.70;99.90;;;;;;5117910;27;20540;-80
2023/10/23 09:26:50;;;;;;;1.90;1.30;;;10.80;99.90;;;;;;5112674;27;20460;-80
2023/10/23 09:29:22;;;;;;;7.53;1.50;;;10.90;99.90;;;;;;5118505;27;20555;-80
2023/10/23 09:31:50;;;;;;;1.20;1.10;;;10.90;99.90;;;;;;5113046;27;20556;-80
2023/10/23 09:34:18;;;;;;;1.87;1.40;;;11.10;99.90;;;;;;5109765;27;20540;-80
2023/10/23 09:36:45;;;;;;;1.73;1.10;;;11.20;99.90;;;;;;5111420;27;20500;-80
2023/10/23 09:39:12;;;;;;;2.03;1.70;;;11.30;99.90;;;;;;5110114;27;20553;-80
2023/10/23 09:41:41;;;;;;;4.20;1.00;;;11.40;99.90;;;;;;5107802;27;20546;-80
2023/10/23 09:44:08;;;;;;;3.30;1.23;;;11.60;99.90;;;;;;5108519;27;20589;-80
2023/10/23 09:46:38;;;;;;;1.70;1.60;;;11.80;99.90;;;;;;5109433;27;20641;-80
2023/10/23 09:49:06;;;;;;;1.30;1.20;;;11.90;99.90;;;;;;5114411;27;20504;-80
2023/10/23 09:51:38;;;;;;;1.93;1.57;;;11.90;99.90;;;;;;5115354;27;20499;-80
2023/10/23 09:54:12;;;;;;;2.07;1.00;;;11.90;99.90;;;;;;5107668;27;20442;-81
2023/10/23 09:56:41;;;;;;;2.40;1.10;;;11.90;99.90;;;;;;5113126;27;20770;-80
2023/10/23 09:59:09;;;;;;;11.73;3.30;;;11.70;99.90;;;;;;5113452;27;20523;-80
2023/10/23 10:01:41;;;;;;;3.00;1.30;;;11.80;99.90;;;;;;5113267;27;20458;-80
2023/10/23 10:04:14;;;;;;;1.10;1.00;;;12.10;99.90;;;;;;5113285;27;20525;-80
2023/10/23 10:06:45;;;;;;;1.80;1.70;;;12.20;99.90;;;;;;5115420;27;20549;-80
2023/10/23 10:09:14;;;;;;;6.33;1.40;;;12.40;99.90;;;;;;5124014;27;20495;-81
2023/10/23 10:11:43;;;;;;;3.23;2.00;;;12.50;99.90;;;;;;5120237;27;20941;-81
2023/10/23 10:14:11;;;;;;;1.43;1.10;;;12.70;99.90;;;;;;5125076;27;20446;-81
2023/10/23 10:16:39;;;;;;;2.33;1.20;;;12.80;99.90;;;;;;5127670;27;20549;-81
2023/10/23 10:19:07;;;;;;;2.30;1.73;;;13.10;99.90;;;;;;5129583;27;20485;-81
2023/10/23 10:21:45;;;;;;;4.77;1.40;;;13.20;99.90;;;;;;5119678;27;20463;-81
2023/10/23 10:24:14;;;;;;;2.53;1.33;;;13.10;99.90;;;;;;5115101;27;20825;-81
2023/10/23 10:26:41;;;;;;;1.60;1.50;;;13.20;99.90;;;;;;5117956;27;20549;-81
2023/10/23 10:29:09;;;;;;;1.40;1.30;;;13.30;99.90;;;;;;5133964;27;20552;-81
2023/10/23 10:32:06;;;;;;;4.03;2.00;;;13.30;99.90;;;;;;5132409;27;20544;-81
2023/10/23 10:34:38;;;;;;;1.43;1.33;;;13.60;99.90;;;;;;5118324;27;20504;-80
2023/10/23 10:37:07;;;;;;;1.73;1.40;;;13.80;99.90;;;;;;5117251;27;20492;-81
2023/10/23 10:40:05;;;;;;;1.60;1.50;;;13.70;99.90;;;;;;5123652;27;20925;-81
2023/10/23 10:42:39;;;;;;;2.70;1.90;;;13.80;99.90;;;;;;5110700;27;20452;-82
2023/10/23 10:45:20;;;;;;;1.77;1.67;;;13.70;99.90;;;;;;5113145;27;21168;-81
2023/10/23 10:47:51;;;;;;;1.70;1.60;;;13.80;99.90;;;;;;5108216;27;20437;-81
2023/10/23 10:50:38;;;;;;;2.50;2.20;;;13.80;99.90;;;;;;5119430;27;20446;-81
2023/10/23 10:53:08;;;;;;;2.03;1.93;;;13.80;99.90;;;;;;5106606;27;20577;-81
2023/10/23 10:55:36;;;;;;;2.30;2.20;;;13.80;99.90;;;;;;5130936;27;20914;-81
2023/10/23 10:58:05;;;;;;;3.60;2.20;;;13.70;99.90;;;;;;5116507;27;20960;-81
2023/10/23 11:00:33;;;;;;;2.20;2.00;;;13.80;99.90;;;;;;5119479;27;20467;-81
2023/10/23 11:03:02;;;;;;;2.33;2.17;;;14.00;99.90;;;;;;5105800;27;21124;-81
2023/10/23 11:05:29;;;;;;;4.30;2.97;;;13.90;99.90;;;;;;5117139;27;20464;-81
2023/10/23 11:07:56;;;;;;;4.00;2.30;;;13.90;99.90;;;;;;5106121;27;20469;-80
2023/10/23 11:10:23;;;;;;;2.77;2.30;;;14.00;99.90;;;;;;5121243;27;20445;-80
2023/10/23 11:12:51;;;;;;;2.17;2.03;;;14.20;99.90;;;;;;5110617;27;20470;-80
2023/10/23 11:15:18;;;;;;;3.77;2.60;;;14.30;99.90;;;;;;5111651;27;20496;-80
2023/10/23 11:17:45;;;;;;;2.43;2.17;;;14.40;99.90;;;;;;5113703;27;20523;-81
2023/10/23 11:20:15;;;;;;;3.30;1.60;;;14.30;99.90;;;;;;5113124;27;20835;-81
2023/10/23 11:22:43;;;;;;;1.60;1.50;;;14.60;99.90;;;;;;5112110;27;20959;-81
2023/10/23 11:25:10;;;;;;;1.77;1.50;;;14.80;99.90;;;;;;5111742;27;20983;-81
2023/10/23 11:27:38;;;;;;;1.33;1.23;;;14.80;99.90;;;;;;5108733;27;20454;-81
2023/10/23 11:30:06;;;;;;;2.40;1.57;;;15.00;99.90;;;;;;5110765;27;20785;-81
2023/10/23 11:32:33;;;;;;;2.03;1.23;;;15.00;99.90;;;;;;5118245;27;20463;-81
2023/10/23 11:35:03;;;;;;;1.43;1.30;;;15.20;99.90;;;;;;5103948;27;20501;-81
2023/10/23 11:37:37;;;;;;;1.30;1.20;;;15.20;99.90;;;;;;5120792;27;20487;-82
2023/10/23 11:40:08;;;;;;;2.60;2.17;;;15.40;99.90;;;;;;5116953;27;20449;-82
2023/10/23 11:42:47;;;;;;;1.07;1.00;;;15.50;99.90;;;;;;5104581;27;20445;-81
2023/10/23 11:45:15;;;;;;;1.87;1.30;;;15.60;99.90;;;;;;5111421;27;20448;-81
2023/10/23 11:47:42;;;;;;;2.10;1.10;;;15.30;99.90;;;;;;5113218;27;20513;-81
2023/10/23 11:50:12;;;;;;;2.77;1.17;;;15.50;99.90;;;;;;5113515;27;20504;-81
2023/10/23 11:52:44;;;;;;;1.63;1.53;;;15.60;99.90;;;;;;5104647;27;20456;-82
2023/10/23 11:55:14;;;;;;;2.43;1.07;;;15.80;99.90;;;;;;5106308;27;20451;-81
2023/10/23 11:57:41;;;;;;;1.23;0.90;;;16.00;99.90;;;;;;5108549;27;20809;-81
2023/10/23 12:00:12;;;;;;;1.30;1.10;;;15.80;99.60;;;;;;5108241;27;20440;-82
2023/10/23 12:02:41;;;;;;;2.43;1.00;;;16.10;99.90;;;;;;5114429;27;20542;-82
2023/10/23 12:05:12;;;;;;;1.47;1.37;;;16.10;99.80;;;;;;5113398;27;20844;-82
2023/10/23 12:07:42;;;;;;;1.07;0.97;;;16.00;98.60;;;;;;5105612;27;20465;-82
2023/10/23 12:10:10;;;;;;;1.80;1.70;;;16.00;99.50;;;;;;5103915;27;20499;-81
2023/10/23 12:12:38;;;;;;;1.43;1.33;;;16.20;97.90;;;;;;5107743;27;21170;-82
2023/10/23 12:15:06;;;;;;;1.43;1.07;;;16.10;98.10;;;;;;5118712;27;20544;-83
2023/10/23 12:17:33;;;;;;;1.93;1.10;;;15.90;99.90;;;;;;5108722;27;20853;-82
2023/10/23 12:20:00;;;;;;;2.97;1.00;;;15.90;99.80;;;;;;5108637;27;20504;-82
2023/10/23 12:22:27;;;;;;;1.10;1.00;;;15.90;99.90;;;;;;5117973;27;20468;-82
2023/10/23 12:24:56;;;;;;;1.17;1.00;;;15.90;99.90;;;;;;5106115;27;20500;-82
2023/10/23 12:27:23;;;;;;;1.03;0.90;;;15.90;99.90;;;;;;5105196;27;20487;-83
2023/10/23 12:29:50;;;;;;;1.33;0.90;;;15.90;99.90;;;;;;5110708;27;20459;-82
2023/10/23 12:32:17;;;;;;;1.13;1.03;;;16.00;99.90;;;;;;5111685;27;20835;-82
2023/10/23 12:34:44;;;;;;;0.90;0.80;;;16.30;99.90;;;;;;5108551;27;20449;-82
2023/10/23 12:37:10;;;;;;;1.03;0.93;;;16.20;99.70;;;;;;5119665;27;20593;-82
2023/10/23 12:39:37;;;;;;;0.80;0.70;;;16.10;99.90;;;;;;5118421;27;20919;-82
2023/10/23 12:42:06;;;;;;;1.27;0.83;;;16.10;99.70;;;;;;5113505;27;20514;-83
2023/10/23 12:44:33;;;;;;;1.60;1.50;;;16.20;99.90;;;;;;5111768;27;20453;-83
2023/10/23 12:47:00;;;;;;;2.07;1.27;;;16.10;99.40;;;;;;5110050;27;20465;-83
2023/10/23 12:49:27;;;;;;;1.77;1.20;;;16.20;98.00;;;;;;5105130;27;20445;-82
2023/10/23 12:51:54;;;;;;;1.63;0.77;;;16.30;98.30;;;;;;5105790;27;20927;-82
2023/10/23 12:54:20;;;;;;;1.73;1.00;;;16.40;96.80;;;;;;5111338;27;20907;-82
2023/10/23 12:56:48;;;;;;;0.83;0.70;;;16.60;96.10;;;;;;5115477;27;20445;-82